Aérodrome :
LOGIN :

S'inscrire | Disclaimer

   EN    FR    IT 

 










Légende :    VFR   VFR Marginal   IFR   IFR Intensif   IFR Très Intensif
Visi : 
Plafond : 
>= 8 km
>= 3000ft
5 à 8 km
1000 à 3000 ft
1500m à 5 km
500 à 1000 ft
800 à 1500m
200 à 500 ft
< 800m
< 200 ft
Symboles :   Orages  Brouillard  Fortes neiges  Fortes précipitations  Vent > 20 kt
SIGMETs :   Divers  Orages  Givrage  Turbulence  Onde Orograph.  Cendres Volcan.







- Altitude de l'aérodrome : 499 ft
- Code IATA : TLS
- Voir les cartes d'approche


LFBO - Toulouse / Blagnac

DERNIER METAR :
  • 200800Z AUTO VRB02KT 9999 FEW018 OVC084 04/03 Q1011 TEMPO 4000 -RA BKN014

METARs EXPIRÉS :
  • 200730Z AUTO VRB02KT 9999 FEW018 OVC084 04/03 Q1011 TEMPO 4000 -RA BKN014
  • 200700Z AUTO 31002KT CAVOK 04/03 Q1011 TEMPO 4000 -RA BKN014
  • 200630Z AUTO 31002KT CAVOK 04/03 Q1011 TEMPO 4000 -RA BKN014
  • 200600Z AUTO 34002KT CAVOK 04/03 Q1010 TEMPO 4000 -RA BKN014
  • 200530Z AUTO 32003KT CAVOK 04/03 Q1010 TEMPO 4000 -RA BKN014

TAF TAF LFBO
Valide du 20 à 06h jusqu'au 21 à 12h UTC


200500Z 2006/2112 31008KT CAVOK
PROB40
TEMPO 2006/2010 4000 -RA BKN014
BECMG 2010/2012 SCT020
PROB40
TEMPO 2012/2017 4000 SHRA BKN014TCU
BECMG 2020/2022 BKN006 OVC020
ATIS : +33 5 62 74 66 36
Pas de NOTAMs connus pour ce terrain.



MET'MAP, la Météo Aéronautique d'un coup d'oeil ! - Copyright ORBIFLY Décembre 2007 - Disclaimer

ORBIFLY MET'MAP TEAM :

Programmation & Développement : Alexandra Zaïnal
Conception & Développement : Baudouin d'Aumeries
Co-Programmation & Développement : Marc-Olivier Méhu
Soutien technique & logistique : Manuel Goepfert

Contact : metmap@orbifly.com




SOURCES & CREDITS :

   NOAA